Time;durP1;ratioP1;P1;durP2;ratioP2;P2;SDS_P1;SDS_P2;PMS_P1;PMS_P2;Temp;Humidity;BMP_temperature;BMP_pressure;BME280_temperature;BME280_humidity;BME280_pressure;Samples;Min_cycle;Max_cycle;Signal;HPM_P1;HPM_P2
2021/12/28 00:00:43;;;;;;;73.30;26.10;;;;;;;;;;5033060;28;20025;-55
2021/12/28 00:03:09;;;;;;;83.45;30.58;;;;;;;;;;5036620;28;20053;-53
2021/12/28 00:05:35;;;;;;;82.22;29.13;;;;;;;;;;5023622;28;20111;-51
2021/12/28 00:08:01;;;;;;;75.47;27.25;;;;;;;;;;5036431;28;20034;-56
2021/12/28 00:10:27;;;;;;;87.60;29.67;;;;;;;;;;5031310;28;20529;-57
2021/12/28 00:12:54;;;;;;;79.07;29.50;;;;;;;;;;5030871;28;20069;-57
2021/12/28 00:17:59;;;;;;;80.40;28.45;;;;;;;;;;5025396;28;20026;-54
2021/12/28 00:20:25;;;;;;;76.68;28.52;;;;;;;;;;5029654;28;20030;-51
2021/12/28 00:22:51;;;;;;;84.45;29.15;;;;;;;;;;5031819;28;20195;-52
2021/12/28 00:25:17;;;;;;;82.25;30.30;;;;;;;;;;5027719;28;20092;-53
2021/12/28 00:27:43;;;;;;;69.82;27.13;;;;;;;;;;5034654;28;20021;-52
2021/12/28 00:30:10;;;;;;;78.25;29.67;;;;;;;;;;5026834;28;20049;-53
2021/12/28 00:32:36;;;;;;;84.55;30.70;;;;;;;;;;5033916;28;20026;-51
2021/12/28 00:35:02;;;;;;;75.10;30.00;;;;;;;;;;5034202;28;20482;-56
2021/12/28 00:37:28;;;;;;;78.65;29.48;;;;;;;;;;5033743;28;20589;-53
2021/12/28 00:39:54;;;;;;;93.50;32.28;;;;;;;;;;5024565;28;20026;-53
2021/12/28 00:42:20;;;;;;;79.50;28.25;;;;;;;;;;5023145;28;20048;-53
2021/12/28 00:44:45;;;;;;;81.68;30.10;;;;;;;;;;5025601;28;20037;-57
2021/12/28 00:47:12;;;;;;;78.93;30.15;;;;;;;;;;5025923;28;20734;-56
2021/12/28 00:49:38;;;;;;;80.47;30.33;;;;;;;;;;5036735;28;20033;-54
2021/12/28 00:52:05;;;;;;;86.32;31.45;;;;;;;;;;5026089;28;20518;-53
2021/12/28 00:54:30;;;;;;;85.65;31.77;;;;;;;;;;5029340;28;20060;-57
2021/12/28 00:56:57;;;;;;;82.78;29.50;;;;;;;;;;5031284;28;20049;-57
2021/12/28 00:59:23;;;;;;;94.82;31.98;;;;;;;;;;5030699;28;20025;-55
2021/12/28 01:01:48;;;;;;;78.55;30.58;;;;;;;;;;5028690;28;20419;-52
2021/12/28 01:04:15;;;;;;;87.10;32.20;;;;;;;;;;5030195;28;20056;-52
2021/12/28 01:06:41;;;;;;;91.50;32.90;;;;;;;;;;5028654;28;20110;-52
2021/12/28 01:09:07;;;;;;;92.55;33.60;;;;;;;;;;5032164;28;20087;-56
2021/12/28 01:11:33;;;;;;;83.20;30.88;;;;;;;;;;5029557;28;20035;-51
2021/12/28 01:13:59;;;;;;;85.20;30.52;;;;;;;;;;5023021;28;20402;-52
2021/12/28 01:16:25;;;;;;;95.45;32.95;;;;;;;;;;5021484;28;20021;-55
2021/12/28 01:18:51;;;;;;;87.68;31.75;;;;;;;;;;5021470;28;20029;-57
2021/12/28 01:21:18;;;;;;;81.03;30.55;;;;;;;;;;5020680;28;20402;-57
2021/12/28 01:23:44;;;;;;;86.68;31.02;;;;;;;;;;5021517;28;20108;-57
2021/12/28 01:26:10;;;;;;;82.10;32.00;;;;;;;;;;5027640;28;20453;-53
2021/12/28 01:28:36;;;;;;;88.40;31.42;;;;;;;;;;5026979;28;20100;-57
2021/12/28 01:31:03;;;;;;;85.65;31.05;;;;;;;;;;5023333;28;20389;-54
2021/12/28 01:33:29;;;;;;;80.70;30.75;;;;;;;;;;5021892;28;20083;-53
2021/12/28 01:35:55;;;;;;;80.70;31.48;;;;;;;;;;5018576;28;20093;-53
2021/12/28 01:38:21;;;;;;;80.95;31.92;;;;;;;;;;5032137;28;20035;-55
2021/12/28 01:40:47;;;;;;;76.13;29.77;;;;;;;;;;5030181;28;20527;-56
2021/12/28 01:43:15;;;;;;;89.72;31.00;;;;;;;;;;5022326;28;20041;-54
2021/12/28 01:45:43;;;;;;;84.15;30.25;;;;;;;;;;5028312;28;20037;-52
2021/12/28 01:48:11;;;;;;;88.07;32.50;;;;;;;;;;5028411;28;20064;-53
2021/12/28 01:50:37;;;;;;;93.95;30.25;;;;;;;;;;5026336;28;20025;-53
2021/12/28 01:53:05;;;;;;;88.55;32.08;;;;;;;;;;5022747;28;20033;-56
2021/12/28 01:55:31;;;;;;;86.20;32.15;;;;;;;;;;5026095;28;20489;-57
2021/12/28 01:57:57;;;;;;;73.38;29.20;;;;;;;;;;5029489;28;20493;-56
2021/12/28 02:00:24;;;;;;;91.22;32.13;;;;;;;;;;5031478;28;20133;-58
2021/12/28 02:02:51;;;;;;;97.47;32.15;;;;;;;;;;5033251;28;20029;-54
2021/12/28 02:05:17;;;;;;;93.22;30.55;;;;;;;;;;5031220;28;20411;-56
2021/12/28 02:07:43;;;;;;;83.68;31.95;;;;;;;;;;5027290;28;20378;-58
2021/12/28 02:10:09;;;;;;;84.68;31.00;;;;;;;;;;5030597;28;20104;-56
2021/12/28 02:12:35;;;;;;;89.20;31.05;;;;;;;;;;5024268;28;20030;-56
2021/12/28 02:15:06;;;;;;;83.15;31.30;;;;;;;;;;5031596;28;20052;-56
2021/12/28 02:17:33;;;;;;;93.97;32.25;;;;;;;;;;5034549;28;20033;-56
2021/12/28 02:20:03;;;;;;;97.82;33.45;;;;;;;;;;5024361;28;20057;-58
2021/12/28 02:22:29;;;;;;;87.90;30.35;;;;;;;;;;5034057;28;20119;-54
2021/12/28 02:24:55;;;;;;;88.93;30.95;;;;;;;;;;5033567;28;20029;-54
2021/12/28 02:27:21;;;;;;;91.05;32.30;;;;;;;;;;5024938;28;20068;-54
2021/12/28 02:29:47;;;;;;;86.88;30.65;;;;;;;;;;5026625;28;20041;-59
2021/12/28 02:32:13;;;;;;;80.40;30.83;;;;;;;;;;5030372;28;20038;-58
2021/12/28 02:34:39;;;;;;;85.68;30.83;;;;;;;;;;5031734;28;20121;-58
2021/12/28 02:37:05;;;;;;;80.93;29.85;;;;;;;;;;5034164;28;20021;-57
2021/12/28 02:39:31;;;;;;;82.15;30.65;;;;;;;;;;5033463;28;20080;-55
2021/12/28 02:41:57;;;;;;;85.22;29.92;;;;;;;;;;5031282;28;20026;-55
2021/12/28 02:44:23;;;;;;;93.88;31.88;;;;;;;;;;5035603;28;20469;-56
2021/12/28 02:46:49;;;;;;;82.47;31.65;;;;;;;;;;5032422;28;20072;-56
2021/12/28 02:49:15;;;;;;;92.45;31.65;;;;;;;;;;5033210;28;20091;-56
2021/12/28 02:51:41;;;;;;;84.63;30.83;;;;;;;;;;5035662;28;20037;-55
2021/12/28 02:54:07;;;;;;;84.18;31.25;;;;;;;;;;5036748;28;20448;-56
2021/12/28 02:56:33;;;;;;;82.15;32.38;;;;;;;;;;5033813;28;20017;-56
2021/12/28 02:59:01;;;;;;;93.70;32.95;;;;;;;;;;5035018;28;20022;-56
2021/12/28 03:01:28;;;;;;;85.30;30.48;;;;;;;;;;5037159;28;20056;-55
2021/12/28 03:04:03;;;;;;;92.30;30.77;;;;;;;;;;5024475;28;20067;-58
2021/12/28 03:06:29;;;;;;;83.38;30.20;;;;;;;;;;5037622;28;20106;-57
2021/12/28 03:08:56;;;;;;;95.47;32.13;;;;;;;;;;5033246;28;20042;-58
2021/12/28 03:11:23;;;;;;;89.25;32.00;;;;;;;;;;5036654;28;20048;-59
2021/12/28 03:13:50;;;;;;;94.82;31.55;;;;;;;;;;5029268;28;20458;-53
2021/12/28 03:16:17;;;;;;;86.57;30.98;;;;;;;;;;5041091;28;20025;-59
2021/12/28 03:18:43;;;;;;;85.45;33.08;;;;;;;;;;5028996;28;20432;-56
2021/12/28 03:21:10;;;;;;;84.90;32.42;;;;;;;;;;5036159;28;20127;-53
2021/12/28 03:23:37;;;;;;;88.88;32.17;;;;;;;;;;5028935;28;20033;-54
2021/12/28 03:26:03;;;;;;;92.85;33.45;;;;;;;;;;5032796;28;20036;-56
2021/12/28 03:28:31;;;;;;;85.65;31.25;;;;;;;;;;5022277;28;20033;-52
2021/12/28 03:31:00;;;;;;;78.95;30.77;;;;;;;;;;5023321;28;20025;-52
2021/12/28 03:33:26;;;;;;;94.20;30.55;;;;;;;;;;5026728;28;20032;-55
2021/12/28 03:35:53;;;;;;;85.55;31.05;;;;;;;;;;5023378;28;20050;-56
2021/12/28 03:38:19;;;;;;;85.05;31.23;;;;;;;;;;5032594;28;20021;-56
2021/12/28 03:40:45;;;;;;;87.28;33.10;;;;;;;;;;5030252;28;20025;-57
2021/12/28 03:43:11;;;;;;;96.63;34.03;;;;;;;;;;5032845;28;20039;-58
2021/12/28 03:45:38;;;;;;;92.85;32.42;;;;;;;;;;5029891;28;20033;-55
2021/12/28 03:48:04;;;;;;;102.43;32.92;;;;;;;;;;5027024;28;20029;-59
2021/12/28 03:50:31;;;;;;;94.15;31.75;;;;;;;;;;5020233;28;20064;-57
2021/12/28 03:52:57;;;;;;;85.38;30.15;;;;;;;;;;5028049;28;20121;-55
2021/12/28 03:55:23;;;;;;;92.18;30.10;;;;;;;;;;5028434;28;20033;-54
2021/12/28 03:57:50;;;;;;;83.10;29.33;;;;;;;;;;5027065;28;20022;-55
2021/12/28 04:00:18;;;;;;;80.82;28.63;;;;;;;;;;5028685;28;20025;-54
2021/12/28 04:02:44;;;;;;;90.95;31.65;;;;;;;;;;5017308;28;20034;-52
2021/12/28 04:05:10;;;;;;;83.00;31.75;;;;;;;;;;5027937;28;20052;-54
2021/12/28 04:07:37;;;;;;;91.65;30.95;;;;;;;;;;5027040;28;20424;-53
2021/12/28 04:10:06;;;;;;;93.95;31.65;;;;;;;;;;5025552;28;20063;-52
2021/12/28 04:12:32;;;;;;;82.68;31.23;;;;;;;;;;5021742;28;20108;-55
2021/12/28 04:14:59;;;;;;;91.10;31.40;;;;;;;;;;5022959;28;20156;-53
2021/12/28 04:17:26;;;;;;;82.80;30.05;;;;;;;;;;5026853;28;20092;-56
2021/12/28 04:19:52;;;;;;;87.22;30.98;;;;;;;;;;5017484;28;20041;-56
2021/12/28 04:22:18;;;;;;;82.20;30.33;;;;;;;;;;5027634;28;21683;-57
2021/12/28 04:24:44;;;;;;;81.72;31.33;;;;;;;;;;5026712;28;20108;-58
2021/12/28 04:27:10;;;;;;;94.72;30.10;;;;;;;;;;5025182;28;20096;-57
2021/12/28 04:29:36;;;;;;;78.38;31.10;;;;;;;;;;5020440;28;20041;-57
2021/12/28 04:32:02;;;;;;;89.22;31.30;;;;;;;;;;5021772;28;20079;-58
2021/12/28 04:34:28;;;;;;;89.88;32.00;;;;;;;;;;5023579;28;20117;-56
2021/12/28 04:36:54;;;;;;;83.38;30.95;;;;;;;;;;5028537;28;20100;-55
2021/12/28 04:39:20;;;;;;;90.32;29.40;;;;;;;;;;5032736;28;20036;-55
2021/12/28 04:41:46;;;;;;;85.40;31.55;;;;;;;;;;5031489;28;20034;-55
2021/12/28 04:44:13;;;;;;;84.10;28.83;;;;;;;;;;5030895;28;20033;-58
2021/12/28 04:46:39;;;;;;;79.57;28.50;;;;;;;;;;5022128;28;20040;-54
2021/12/28 04:49:06;;;;;;;91.25;30.00;;;;;;;;;;5018872;28;20036;-56
2021/12/28 04:51:32;;;;;;;86.68;29.17;;;;;;;;;;5030698;28;20035;-55
2021/12/28 04:54:01;;;;;;;86.45;30.77;;;;;;;;;;5028299;28;20116;-56
2021/12/28 04:56:27;;;;;;;80.22;30.17;;;;;;;;;;5027358;28;20037;-57
2021/12/28 04:58:53;;;;;;;75.60;29.13;;;;;;;;;;5026732;28;20049;-58
2021/12/28 05:01:19;;;;;;;78.80;30.27;;;;;;;;;;5029360;28;20026;-58
2021/12/28 05:03:45;;;;;;;88.07;30.95;;;;;;;;;;5030058;28;20114;-58
2021/12/28 05:06:11;;;;;;;83.95;29.08;;;;;;;;;;5019625;28;20061;-56
2021/12/28 05:08:40;;;;;;;80.15;31.27;;;;;;;;;;5024126;28;20026;-53
2021/12/28 05:11:06;;;;;;;90.68;31.23;;;;;;;;;;5020848;28;20036;-57
2021/12/28 05:13:32;;;;;;;86.72;29.90;;;;;;;;;;5028326;28;20025;-57
2021/12/28 05:15:58;;;;;;;86.75;30.35;;;;;;;;;;5032693;28;20446;-57
2021/12/28 05:18:24;;;;;;;79.85;29.60;;;;;;;;;;5032366;28;20029;-56
2021/12/28 05:20:50;;;;;;;87.05;29.90;;;;;;;;;;5026294;28;20097;-58
2021/12/28 05:23:16;;;;;;;88.95;30.20;;;;;;;;;;5031256;28;20423;-58
2021/12/28 05:25:42;;;;;;;81.43;30.20;;;;;;;;;;5027384;28;20040;-57
2021/12/28 05:28:08;;;;;;;88.90;30.63;;;;;;;;;;5026413;28;20040;-56
2021/12/28 05:30:35;;;;;;;81.10;29.48;;;;;;;;;;5022804;28;20489;-58
2021/12/28 05:33:01;;;;;;;82.82;30.35;;;;;;;;;;5034121;28;20029;-57
2021/12/28 05:35:27;;;;;;;90.47;31.80;;;;;;;;;;5028499;28;20498;-57
2021/12/28 05:37:53;;;;;;;85.05;30.50;;;;;;;;;;5039023;28;20077;-58
2021/12/28 05:40:19;;;;;;;80.75;29.70;;;;;;;;;;5029119;28;20044;-58
2021/12/28 05:42:45;;;;;;;84.88;30.40;;;;;;;;;;5026607;28;20025;-56
2021/12/28 05:45:11;;;;;;;86.70;31.10;;;;;;;;;;5033984;28;20022;-57
2021/12/28 05:47:37;;;;;;;78.45;28.77;;;;;;;;;;5026966;28;20040;-55
2021/12/28 05:50:04;;;;;;;92.72;31.48;;;;;;;;;;5030843;28;20104;-55
2021/12/28 05:52:30;;;;;;;81.90;29.27;;;;;;;;;;5023865;28;20124;-57
2021/12/28 05:54:56;;;;;;;81.10;29.77;;;;;;;;;;5031063;28;20470;-57
2021/12/28 05:57:24;;;;;;;88.50;31.52;;;;;;;;;;5028685;28;20515;-54
2021/12/28 05:59:50;;;;;;;95.40;29.85;;;;;;;;;;5023601;28;20025;-57
2021/12/28 06:02:16;;;;;;;83.93;30.50;;;;;;;;;;5025728;28;20039;-59
2021/12/28 06:04:42;;;;;;;86.15;31.20;;;;;;;;;;5030451;28;20121;-57
2021/12/28 06:07:08;;;;;;;78.65;29.88;;;;;;;;;;5020351;28;20121;-59
2021/12/28 06:09:34;;;;;;;94.55;31.02;;;;;;;;;;5032430;28;20025;-57
2021/12/28 06:12:00;;;;;;;91.97;31.20;;;;;;;;;;5023593;28;20140;-59
2021/12/28 06:14:26;;;;;;;94.47;32.47;;;;;;;;;;5028973;28;20037;-57
2021/12/28 06:16:52;;;;;;;85.70;31.15;;;;;;;;;;5018096;28;20078;-56
2021/12/28 06:19:18;;;;;;;89.10;29.77;;;;;;;;;;5019307;28;20113;-55
2021/12/28 06:21:44;;;;;;;80.15;30.85;;;;;;;;;;5016259;28;20072;-58
2021/12/28 06:24:10;;;;;;;92.22;31.20;;;;;;;;;;5030344;28;20029;-57
2021/12/28 06:26:36;;;;;;;82.45;31.00;;;;;;;;;;5025703;28;20033;-54
2021/12/28 06:29:04;;;;;;;76.78;30.48;;;;;;;;;;5029711;28;20121;-54
2021/12/28 06:31:30;;;;;;;99.32;30.42;;;;;;;;;;5031936;28;20102;-56
2021/12/28 06:33:57;;;;;;;83.93;30.40;;;;;;;;;;5033613;28;20638;-56
2021/12/28 06:36:23;;;;;;;87.13;31.73;;;;;;;;;;5028777;28;20038;-59
2021/12/28 06:38:49;;;;;;;83.82;30.60;;;;;;;;;;5032613;28;20429;-59
2021/12/28 06:41:15;;;;;;;86.55;30.92;;;;;;;;;;5028869;28;20101;-58
2021/12/28 06:43:41;;;;;;;77.13;30.25;;;;;;;;;;5028136;28;20537;-58
2021/12/28 06:46:07;;;;;;;85.43;30.75;;;;;;;;;;5033369;28;20037;-55
2021/12/28 06:48:33;;;;;;;89.15;29.50;;;;;;;;;;5029830;28;20056;-58
2021/12/28 06:50:59;;;;;;;81.88;30.08;;;;;;;;;;5028588;28;20087;-59
2021/12/28 06:53:25;;;;;;;82.55;30.20;;;;;;;;;;5025685;28;20492;-57
2021/12/28 06:55:51;;;;;;;95.30;32.40;;;;;;;;;;5033261;28;20495;-57
2021/12/28 06:58:17;;;;;;;92.65;31.55;;;;;;;;;;5033266;28;20025;-59
2021/12/28 07:00:43;;;;;;;89.43;32.15;;;;;;;;;;5032381;28;20025;-57
2021/12/28 07:03:09;;;;;;;93.75;30.00;;;;;;;;;;5036792;28;20104;-58
2021/12/28 07:05:36;;;;;;;80.03;30.08;;;;;;;;;;5029133;28;20026;-53
2021/12/28 07:08:02;;;;;;;84.60;29.70;;;;;;;;;;5037912;28;20469;-57
2021/12/28 07:10:28;;;;;;;87.55;31.63;;;;;;;;;;5026122;28;20388;-56
2021/12/28 07:12:54;;;;;;;87.32;31.40;;;;;;;;;;5031793;28;20129;-57
2021/12/28 07:15:20;;;;;;;92.85;31.25;;;;;;;;;;5031971;28;20025;-57
2021/12/28 07:17:46;;;;;;;85.05;30.45;;;;;;;;;;5035619;28;20472;-56
2021/12/28 07:20:13;;;;;;;87.80;31.25;;;;;;;;;;5034826;28;20429;-56
2021/12/28 07:22:39;;;;;;;86.80;31.17;;;;;;;;;;5032815;28;20028;-53
2021/12/28 07:25:06;;;;;;;79.03;29.27;;;;;;;;;;5023894;28;20017;-57
2021/12/28 07:27:32;;;;;;;83.38;28.92;;;;;;;;;;5024690;28;20033;-55
2021/12/28 07:29:58;;;;;;;85.22;31.00;;;;;;;;;;5035432;28;20029;-57
2021/12/28 07:32:24;;;;;;;85.90;30.75;;;;;;;;;;5023635;28;20037;-56
2021/12/28 07:34:50;;;;;;;85.10;30.27;;;;;;;;;;5026314;28;20561;-57
2021/12/28 07:37:16;;;;;;;82.38;30.10;;;;;;;;;;5028926;28;20029;-58
2021/12/28 07:39:42;;;;;;;85.32;29.65;;;;;;;;;;5019330;28;20071;-57
2021/12/28 07:42:08;;;;;;;86.53;29.60;;;;;;;;;;5031554;28;20029;-58
2021/12/28 07:44:35;;;;;;;93.82;31.00;;;;;;;;;;5031572;28;20038;-58
2021/12/28 07:47:02;;;;;;;81.88;29.85;;;;;;;;;;5030454;28;20045;-59
2021/12/28 07:49:27;;;;;;;82.60;28.25;;;;;;;;;;5034675;28;20026;-59
2021/12/28 07:51:54;;;;;;;87.00;29.15;;;;;;;;;;5025002;28;20048;-58
2021/12/28 07:54:19;;;;;;;86.47;29.17;;;;;;;;;;5035452;28;20026;-58
2021/12/28 07:56:46;;;;;;;80.72;29.80;;;;;;;;;;5027901;28;20029;-57
2021/12/28 07:59:12;;;;;;;85.70;28.00;;;;;;;;;;5035560;28;20497;-57
2021/12/28 08:01:38;;;;;;;88.18;30.60;;;;;;;;;;5030720;28;20104;-55
2021/12/28 08:04:04;;;;;;;79.53;27.63;;;;;;;;;;5032290;28;20117;-55
2021/12/28 08:06:30;;;;;;;82.45;29.50;;;;;;;;;;5019911;28;20030;-58
2021/12/28 08:08:56;;;;;;;79.60;31.35;;;;;;;;;;5039209;28;20038;-55
2021/12/28 08:11:25;;;;;;;97.30;39.53;;;;;;;;;;5026574;28;20120;-56
2021/12/28 08:13:51;;;;;;;80.63;30.17;;;;;;;;;;5027898;28;20040;-59
2021/12/28 08:16:17;;;;;;;81.80;27.98;;;;;;;;;;5024463;28;20122;-57
2021/12/28 08:18:43;;;;;;;132.27;51.30;;;;;;;;;;5022707;28;20065;-56
2021/12/28 08:21:09;;;;;;;101.50;36.97;;;;;;;;;;5026844;28;20029;-54
2021/12/28 08:23:35;;;;;;;91.93;32.45;;;;;;;;;;5030456;28;20105;-56
2021/12/28 08:26:01;;;;;;;72.47;28.63;;;;;;;;;;5027487;28;20037;-57
2021/12/28 08:28:29;;;;;;;109.50;39.50;;;;;;;;;;5032119;28;20493;-56
2021/12/28 08:30:56;;;;;;;80.95;30.83;;;;;;;;;;5024827;28;20026;-57
2021/12/28 08:33:22;;;;;;;80.75;32.13;;;;;;;;;;5030895;28;20045;-55
2021/12/28 08:35:48;;;;;;;87.57;37.53;;;;;;;;;;5022708;28;20053;-57
2021/12/28 08:38:14;;;;;;;85.60;33.63;;;;;;;;;;5031815;28;20083;-57
2021/12/28 08:40:42;;;;;;;89.07;32.58;;;;;;;;;;5039784;28;20104;-57
2021/12/28 08:43:08;;;;;;;78.95;31.20;;;;;;;;;;5035451;28;20486;-57
2021/12/28 08:45:34;;;;;;;88.90;33.90;;;;;;;;;;5031855;28;20029;-56
2021/12/28 08:48:00;;;;;;;85.72;27.27;;;;;;;;;;5033162;28;20100;-54
2021/12/28 08:50:26;;;;;;;75.60;26.45;;;;;;;;;;5032325;28;20033;-52
2021/12/28 08:52:52;;;;;;;71.72;26.10;;;;;;;;;;5031198;28;20039;-56
2021/12/28 08:55:19;;;;;;;85.72;32.15;;;;;;;;;;5035305;28;20037;-58
2021/12/28 08:57:46;;;;;;;75.30;29.77;;;;;;;;;;5030278;28;20563;-58
2021/12/28 09:00:15;;;;;;;81.68;28.60;;;;;;;;;;5038408;28;20026;-58
2021/12/28 09:02:41;;;;;;;71.40;27.15;;;;;;;;;;5032258;28;20175;-54
2021/12/28 09:05:07;;;;;;;74.82;28.05;;;;;;;;;;5035550;28;20412;-58
2021/12/28 09:07:33;;;;;;;75.82;28.25;;;;;;;;;;5028411;28;20108;-57
2021/12/28 09:10:00;;;;;;;83.25;28.95;;;;;;;;;;5028608;28;20374;-55
2021/12/28 09:12:26;;;;;;;75.80;29.13;;;;;;;;;;5033322;28;20057;-55
2021/12/28 09:14:52;;;;;;;88.57;28.67;;;;;;;;;;5033804;28;20108;-56
2021/12/28 09:17:18;;;;;;;85.90;36.47;;;;;;;;;;5029562;28;20085;-57
2021/12/28 09:19:45;;;;;;;80.55;29.80;;;;;;;;;;5024106;28;20105;-53
2021/12/28 09:22:11;;;;;;;70.97;26.60;;;;;;;;;;5028977;28;20037;-55
2021/12/28 09:24:38;;;;;;;76.95;28.08;;;;;;;;;;5031496;28;20029;-56
2021/12/28 09:27:04;;;;;;;80.30;28.60;;;;;;;;;;5029009;28;20092;-55
2021/12/28 09:29:31;;;;;;;70.97;27.23;;;;;;;;;;5031288;28;20033;-58
2021/12/28 09:31:58;;;;;;;76.97;27.35;;;;;;;;;;5024446;28;20083;-58
2021/12/28 09:34:25;;;;;;;81.55;30.63;;;;;;;;;;5028106;28;20053;-56
2021/12/28 09:36:51;;;;;;;79.90;28.23;;;;;;;;;;5031868;28;20055;-57
2021/12/28 09:39:22;;;;;;;74.43;28.30;;;;;;;;;;5028562;28;20470;-57
2021/12/28 09:41:50;;;;;;;72.57;26.85;;;;;;;;;;5026961;28;20030;-57
2021/12/28 09:44:16;;;;;;;75.72;26.48;;;;;;;;;;5027438;28;20471;-56
2021/12/28 09:46:42;;;;;;;81.18;26.88;;;;;;;;;;5030963;28;20104;-55
2021/12/28 09:49:08;;;;;;;68.63;26.23;;;;;;;;;;5032966;28;20025;-56
2021/12/28 09:51:34;;;;;;;68.13;24.85;;;;;;;;;;5031142;28;20381;-55
2021/12/28 09:54:00;;;;;;;80.57;25.88;;;;;;;;;;5018690;28;20104;-56
2021/12/28 09:56:26;;;;;;;73.43;27.65;;;;;;;;;;5026231;28;20044;-56
2021/12/28 09:58:52;;;;;;;77.25;29.27;;;;;;;;;;5028933;28;20021;-51
2021/12/28 10:01:20;;;;;;;82.20;29.15;;;;;;;;;;5023259;28;20058;-53
2021/12/28 10:03:46;;;;;;;79.97;28.95;;;;;;;;;;5023768;28;20374;-56
2021/12/28 10:06:17;;;;;;;82.40;26.73;;;;;;;;;;5024997;28;20108;-53
2021/12/28 10:08:43;;;;;;;72.85;25.63;;;;;;;;;;5027660;28;20036;-56
2021/12/28 10:11:09;;;;;;;74.22;26.73;;;;;;;;;;5032233;28;20053;-55
2021/12/28 10:13:35;;;;;;;76.25;26.83;;;;;;;;;;5019095;28;20039;-51
2021/12/28 10:16:01;;;;;;;81.55;26.48;;;;;;;;;;5026247;28;20021;-55
2021/12/28 10:18:27;;;;;;;74.35;28.13;;;;;;;;;;5025903;28;20030;-56
2021/12/28 10:20:56;;;;;;;79.68;26.70;;;;;;;;;;5028925;28;20029;-56
2021/12/28 10:23:26;;;;;;;65.65;26.02;;;;;;;;;;5030919;28;20049;-52
2021/12/28 10:25:56;;;;;;;68.85;26.42;;;;;;;;;;5023457;28;20018;-53
2021/12/28 10:28:23;;;;;;;75.85;26.27;;;;;;;;;;5024788;28;20029;-52
2021/12/28 10:30:53;;;;;;;69.85;25.85;;;;;;;;;;5026134;28;20026;-56
2021/12/28 10:33:20;;;;;;;75.88;26.50;;;;;;;;;;5023638;28;20026;-50
2021/12/28 10:35:48;;;;;;;68.75;25.70;;;;;;;;;;5030512;28;20064;-53
2021/12/28 10:38:16;;;;;;;65.10;25.73;;;;;;;;;;5026830;28;20025;-51
2021/12/28 10:40:43;;;;;;;69.53;25.15;;;;;;;;;;5024825;28;20116;-52
2021/12/28 10:43:16;;;;;;;66.93;24.35;;;;;;;;;;5034712;28;20121;-51
2021/12/28 10:45:44;;;;;;;74.22;25.45;;;;;;;;;;5027478;28;20460;-52
2021/12/28 10:48:13;;;;;;;71.97;24.17;;;;;;;;;;5029253;28;20104;-55
2021/12/28 10:50:41;;;;;;;64.97;23.25;;;;;;;;;;5031423;28;20504;-54
2021/12/28 10:53:23;;;;;;;62.97;22.92;;;;;;;;;;5031375;28;20071;-56
2021/12/28 10:55:52;;;;;;;68.75;24.90;;;;;;;;;;5031252;28;20066;-55
2021/12/28 10:58:27;;;;;;;62.58;21.67;;;;;;;;;;5022353;28;20385;-52
2021/12/28 11:00:54;;;;;;;73.53;26.42;;;;;;;;;;5027159;28;20080;-55
2021/12/28 11:03:23;;;;;;;71.47;24.80;;;;;;;;;;5034827;28;20040;-56
2021/12/28 11:05:50;;;;;;;57.78;22.77;;;;;;;;;;5030003;28;20358;-57
2021/12/28 11:08:17;;;;;;;60.80;22.48;;;;;;;;;;5027808;28;20026;-52
2021/12/28 11:10:48;;;;;;;65.30;23.90;;;;;;;;;;5024185;28;20144;-55
2021/12/28 11:13:15;;;;;;;68.60;24.60;;;;;;;;;;5028838;28;20071;-51
2021/12/28 11:15:45;;;;;;;71.95;25.55;;;;;;;;;;5025705;28;20128;-52
2021/12/28 11:18:22;;;;;;;59.30;23.63;;;;;;;;;;5025253;28;20147;-51
2021/12/28 11:20:49;;;;;;;65.40;22.67;;;;;;;;;;5021849;28;20046;-51
2021/12/28 11:23:16;;;;;;;65.28;22.33;;;;;;;;;;5023973;28;20079;-50
2021/12/28 11:25:46;;;;;;;61.28;23.63;;;;;;;;;;5023489;28;20026;-53
2021/12/28 11:28:20;;;;;;;63.20;22.48;;;;;;;;;;5030012;28;20642;-53
2021/12/28 11:31:01;;;;;;;64.10;24.00;;;;;;;;;;5029137;28;20029;-52
2021/12/28 11:33:27;;;;;;;60.53;21.42;;;;;;;;;;5024433;28;20103;-52
2021/12/28 11:35:54;;;;;;;71.18;24.30;;;;;;;;;;5027520;28;20072;-54
2021/12/28 11:38:20;;;;;;;62.80;22.63;;;;;;;;;;5026411;28;20531;-56
2021/12/28 11:40:46;;;;;;;69.03;23.65;;;;;;;;;;5028018;28;20053;-52
2021/12/28 11:43:13;;;;;;;59.33;22.13;;;;;;;;;;5036812;28;20105;-54
2021/12/28 11:45:39;;;;;;;69.05;24.08;;;;;;;;;;5031384;28;20547;-54
2021/12/28 11:48:05;;;;;;;64.97;21.85;;;;;;;;;;5023981;28;20138;-55
2021/12/28 11:50:32;;;;;;;60.00;23.02;;;;;;;;;;5023409;28;20116;-56
2021/12/28 11:52:57;;;;;;;63.50;22.92;;;;;;;;;;5019347;28;20559;-56
2021/12/28 11:55:24;;;;;;;61.05;22.02;;;;;;;;;;5020530;28;20033;-53
2021/12/28 11:57:51;;;;;;;62.28;23.25;;;;;;;;;;5029894;28;20520;-53
2021/12/28 12:00:19;;;;;;;61.92;22.90;;;;;;;;;;5029789;28;20028;-57
2021/12/28 12:02:49;;;;;;;59.88;21.25;;;;;;;;;;5030644;28;20029;-55
2021/12/28 12:05:23;;;;;;;60.08;21.25;;;;;;;;;;5023362;28;20044;-54
2021/12/28 12:08:08;;;;;;;60.20;21.90;;;;;;;;;;5025093;28;20072;-52
2021/12/28 12:10:36;;;;;;;56.88;20.75;;;;;;;;;;5026737;28;20088;-56
2021/12/28 12:13:04;;;;;;;54.10;20.70;;;;;;;;;;5027084;28;20033;-52
2021/12/28 12:15:39;;;;;;;59.22;21.13;;;;;;;;;;5022923;28;20385;-57
2021/12/28 12:18:08;;;;;;;56.20;21.20;;;;;;;;;;5028415;28;20045;-56
2021/12/28 12:20:36;;;;;;;56.47;22.23;;;;;;;;;;5029282;28;20116;-56
2021/12/28 12:23:09;;;;;;;56.05;21.15;;;;;;;;;;5029872;28;20021;-54
2021/12/28 12:25:53;;;;;;;61.13;21.85;;;;;;;;;;5025915;28;20135;-53
2021/12/28 12:28:30;;;;;;;60.42;21.85;;;;;;;;;;5025236;28;20029;-52
2021/12/28 12:30:57;;;;;;;65.63;22.77;;;;;;;;;;5026498;28;20037;-55
2021/12/28 12:33:23;;;;;;;57.25;21.88;;;;;;;;;;5021929;28;20037;-56
2021/12/28 12:35:55;;;;;;;60.20;21.73;;;;;;;;;;5026685;28;20428;-55
2021/12/28 12:38:24;;;;;;;62.53;22.55;;;;;;;;;;5023634;28;20026;-57
2021/12/28 12:40:54;;;;;;;60.88;20.08;;;;;;;;;;5023584;28;20065;-56
2021/12/28 12:43:20;;;;;;;60.28;21.63;;;;;;;;;;5028685;28;20104;-55
2021/12/28 12:45:53;;;;;;;56.20;20.45;;;;;;;;;;5025286;28;20049;-56
2021/12/28 12:48:31;;;;;;;63.15;21.10;;;;;;;;;;5029042;28;20552;-56
2021/12/28 12:51:16;;;;;;;53.60;21.00;;;;;;;;;;5021326;28;20018;-53
2021/12/28 12:53:58;;;;;;;53.22;21.45;;;;;;;;;;5022392;28;20034;-55
2021/12/28 12:56:25;;;;;;;51.85;20.75;;;;;;;;;;5025689;28;20061;-52
2021/12/28 12:58:52;;;;;;;51.58;19.98;;;;;;;;;;5023449;28;20025;-55
2021/12/28 13:01:27;;;;;;;54.08;20.73;;;;;;;;;;5020086;28;20025;-55
2021/12/28 13:03:54;;;;;;;58.17;21.77;;;;;;;;;;5022664;28;20038;-56
2021/12/28 13:06:39;;;;;;;56.15;20.08;;;;;;;;;;5027500;28;20083;-54
2021/12/28 13:09:05;;;;;;;57.35;21.10;;;;;;;;;;5021119;28;20537;-54
2021/12/28 13:11:32;;;;;;;52.50;19.83;;;;;;;;;;5019402;28;20029;-56
2021/12/28 13:13:58;;;;;;;51.58;19.55;;;;;;;;;;5029590;28;20033;-54
2021/12/28 13:16:24;;;;;;;53.30;18.90;;;;;;;;;;5017813;28;20038;-56
2021/12/28 13:18:50;;;;;;;57.72;19.58;;;;;;;;;;5024710;28;20091;-53
2021/12/28 13:21:19;;;;;;;45.30;19.70;;;;;;;;;;5023075;28;20105;-51
2021/12/28 13:24:04;;;;;;;51.75;19.17;;;;;;;;;;5028787;28;20083;-53
2021/12/28 13:26:41;;;;;;;45.38;18.73;;;;;;;;;;5031113;28;20458;-54
2021/12/28 13:29:07;;;;;;;51.03;18.45;;;;;;;;;;5026983;28;20792;-54
2021/12/28 13:31:33;;;;;;;48.08;18.42;;;;;;;;;;5023251;28;20058;-51
2021/12/28 13:34:00;;;;;;;46.30;18.83;;;;;;;;;;5026618;28;20108;-52
2021/12/28 13:36:27;;;;;;;49.33;18.75;;;;;;;;;;5029874;28;20049;-56
2021/12/28 13:39:04;;;;;;;48.72;17.90;;;;;;;;;;5023769;28;20028;-51
2021/12/28 13:41:30;;;;;;;49.20;17.92;;;;;;;;;;5028716;28;20362;-52
2021/12/28 13:44:02;;;;;;;48.92;18.23;;;;;;;;;;5029218;28;20120;-54
2021/12/28 13:46:28;;;;;;;48.25;17.30;;;;;;;;;;5029567;28;20370;-51
2021/12/28 13:48:54;;;;;;;51.60;19.92;;;;;;;;;;5033670;28;20033;-53
2021/12/28 13:51:22;;;;;;;42.80;17.40;;;;;;;;;;5030136;28;20470;-53
2021/12/28 13:53:52;;;;;;;54.38;19.70;;;;;;;;;;5028277;28;20032;-56
2021/12/28 13:56:20;;;;;;;52.08;20.88;;;;;;;;;;5024642;28;20029;-54
2021/12/28 13:58:51;;;;;;;43.60;19.48;;;;;;;;;;5027705;28;20022;-51
2021/12/28 14:01:21;;;;;;;50.35;17.60;;;;;;;;;;5028283;28;20021;-55
2021/12/28 14:04:04;;;;;;;49.15;17.30;;;;;;;;;;5033129;28;20057;-55
2021/12/28 14:06:30;;;;;;;;;;;;;;;;;;5024997;28;20034;-54
2021/12/28 14:08:57;;;;;;;49.55;18.25;;;;;;;;;;5026267;28;19955;-54
2021/12/28 14:11:30;;;;;;;43.90;18.38;;;;;;;;;;5027109;28;20148;-53
2021/12/28 14:13:56;;;;;;;46.97;17.60;;;;;;;;;;5032865;28;20091;-52
2021/12/28 14:16:22;;;;;;;38.88;16.45;;;;;;;;;;5027216;28;20470;-55
2021/12/28 14:18:52;;;;;;;39.35;16.90;;;;;;;;;;5024364;28;20036;-52